createdAt,value
2023-04-30T00:01:44.909Z,20.48
2023-04-30T00:04:12.390Z,20.48
2023-04-30T00:06:39.915Z,20.48
2023-04-30T00:09:07.932Z,20.48
2023-04-30T00:11:35.592Z,20.48
2023-04-30T00:14:03.151Z,20.48
2023-04-30T00:16:31.894Z,20.48
2023-04-30T00:18:59.396Z,20.48
2023-04-30T00:21:27.738Z,20.48
2023-04-30T00:23:55.118Z,20.48
2023-04-30T00:26:22.628Z,20.48
2023-04-30T00:28:49.970Z,20.48
2023-04-30T00:31:17.373Z,20.48
2023-04-30T00:33:47.073Z,20.48
2023-04-30T00:36:14.453Z,20.48
2023-04-30T00:38:42.231Z,20.48
2023-04-30T00:41:09.880Z,20.48
2023-04-30T00:43:37.320Z,20.48
2023-04-30T00:46:06.670Z,5.52
2023-04-30T00:48:34.211Z,5.58
2023-04-30T00:51:04.609Z,5.58
2023-04-30T00:53:32.586Z,5.58
2023-04-30T00:56:00.154Z,5.58
2023-04-30T00:58:27.603Z,5.58
2023-04-30T01:00:55.324Z,5.58
2023-04-30T01:03:23.324Z,5.58
2023-04-30T01:05:50.731Z,5.58
2023-04-30T01:08:19.488Z,5.58
2023-04-30T01:10:52.468Z,5.58
2023-04-30T01:13:23.821Z,4.74
2023-04-30T01:15:57.847Z,4.58
2023-04-30T01:18:30.559Z,4.60
2023-04-30T01:21:03.198Z,4.50
2023-04-30T01:23:45.459Z,4.50
2023-04-30T01:26:16.471Z,4.50
2023-04-30T01:28:47.299Z,4.50
2023-04-30T01:31:16.410Z,4.50
2023-04-30T01:33:43.832Z,4.50
2023-04-30T01:36:43.809Z,4.50
2023-04-30T01:39:21.096Z,4.50
2023-04-30T01:41:55.918Z,4.50
2023-04-30T01:44:42.312Z,4.50
2023-04-30T01:47:18.907Z,4.50
2023-04-30T01:49:57.181Z,4.50
2023-04-30T01:52:33.049Z,4.50
2023-04-30T01:55:06.383Z,4.50
2023-04-30T01:57:39.171Z,4.50
2023-04-30T02:00:10.787Z,4.50
2023-04-30T02:02:38.524Z,4.50
2023-04-30T02:05:06.656Z,4.50
2023-04-30T02:07:40.314Z,4.50
2023-04-30T02:10:09.255Z,4.50
2023-04-30T02:12:36.848Z,4.50
2023-04-30T02:15:05.441Z,4.50
2023-04-30T02:17:34.669Z,4.50
2023-04-30T02:20:02.073Z,4.50
2023-04-30T02:22:29.493Z,4.50
2023-04-30T02:24:57.346Z,4.50
2023-04-30T02:27:26.869Z,4.50
2023-04-30T02:29:54.824Z,4.50
2023-04-30T02:32:22.709Z,4.50
2023-04-30T02:34:51.414Z,4.50
2023-04-30T02:37:18.912Z,4.50
2023-04-30T02:39:46.472Z,4.50
2023-04-30T02:42:13.850Z,4.50
2023-04-30T02:44:41.736Z,4.50
2023-04-30T02:47:09.198Z,4.50
2023-04-30T02:49:36.548Z,4.50
2023-04-30T02:52:06.021Z,4.50
2023-04-30T02:54:33.645Z,4.50
2023-04-30T02:57:01.429Z,4.50
2023-04-30T02:59:28.954Z,4.50
2023-04-30T03:01:56.362Z,4.50
2023-04-30T03:04:23.839Z,4.50
2023-04-30T03:06:51.316Z,4.50
2023-04-30T03:09:20.032Z,4.50
2023-04-30T03:11:47.879Z,4.50
2023-04-30T03:14:15.542Z,4.50
2023-04-30T03:16:42.986Z,4.50
2023-04-30T03:19:10.435Z,4.50
2023-04-30T03:21:37.820Z,4.50
2023-04-30T03:24:05.373Z,4.50
2023-04-30T03:26:34.098Z,4.50
2023-04-30T03:29:02.071Z,4.50
2023-04-30T03:31:29.511Z,4.50
2023-04-30T03:33:56.964Z,4.50
2023-04-30T03:36:24.595Z,4.50
2023-04-30T03:38:51.971Z,4.50
2023-04-30T03:41:19.839Z,4.50
2023-04-30T03:43:48.588Z,4.50
2023-04-30T03:46:16.069Z,4.50
2023-04-30T03:48:43.834Z,4.50
2023-04-30T03:51:11.384Z,4.50
2023-04-30T03:53:38.871Z,4.50
2023-04-30T03:56:07.393Z,4.50
2023-04-30T03:58:34.778Z,4.50
2023-04-30T04:01:04.518Z,4.50
2023-04-30T04:03:32.212Z,4.50
2023-04-30T04:05:59.667Z,4.50
2023-04-30T04:08:27.158Z,4.50
2023-04-30T04:10:54.629Z,4.50
2023-04-30T04:13:22.005Z,4.50
2023-04-30T04:15:49.411Z,4.50
2023-04-30T04:18:18.142Z,4.50
2023-04-30T04:20:45.522Z,4.50
2023-04-30T04:23:12.884Z,4.50
2023-04-30T04:25:41.553Z,4.50
2023-04-30T04:28:09.204Z,4.50
2023-04-30T04:30:37.684Z,4.50
2023-04-30T04:33:05.847Z,4.50
2023-04-30T04:35:34.562Z,4.50
2023-04-30T04:38:02.752Z,4.50
2023-04-30T04:40:31.659Z,4.50
2023-04-30T04:42:59.731Z,4.50
2023-04-30T04:45:27.143Z,4.50
2023-04-30T04:47:54.588Z,4.50
2023-04-30T04:50:22.686Z,4.50
2023-04-30T04:52:51.403Z,4.50
2023-04-30T04:55:18.937Z,4.50
2023-04-30T04:57:46.372Z,4.50
2023-04-30T05:00:14.152Z,4.50
2023-04-30T05:02:42.300Z,4.50
2023-04-30T05:05:10.920Z,4.50
2023-04-30T05:07:38.346Z,4.50
2023-04-30T05:10:09.294Z,4.50
2023-04-30T05:12:36.873Z,4.50
2023-04-30T05:15:06.519Z,4.50
2023-04-30T05:17:34.242Z,4.50
2023-04-30T05:20:01.844Z,4.50
2023-04-30T05:22:29.272Z,4.50
2023-04-30T05:24:56.636Z,4.50
2023-04-30T05:27:25.659Z,4.50
2023-04-30T05:29:53.270Z,4.50
2023-04-30T05:32:20.779Z,4.50
2023-04-30T05:34:48.358Z,4.50
2023-04-30T05:37:17.587Z,4.50
2023-04-30T05:39:44.976Z,4.50
2023-04-30T05:42:12.347Z,4.50
2023-04-30T05:44:41.340Z,4.50
2023-04-30T05:47:08.946Z,4.50
2023-04-30T05:49:36.522Z,4.50
2023-04-30T05:52:04.484Z,4.50
2023-04-30T05:54:31.965Z,4.50
2023-04-30T05:56:59.417Z,4.50
2023-04-30T05:59:26.933Z,4.50
2023-04-30T06:01:55.974Z,5.96
2023-04-30T06:04:23.463Z,5.96
2023-04-30T06:06:51.040Z,5.96
2023-04-30T06:09:18.774Z,6.60
2023-04-30T06:11:50.257Z,6.66
2023-04-30T06:14:18.228Z,6.66
2023-04-30T06:16:46.022Z,6.66
2023-04-30T06:19:14.974Z,6.66
2023-04-30T06:21:43.802Z,6.66
2023-04-30T06:24:11.417Z,6.66
2023-04-30T06:26:41.807Z,6.66
2023-04-30T06:29:09.226Z,6.66
2023-04-30T06:31:36.854Z,6.66
2023-04-30T06:34:04.260Z,6.66
2023-04-30T06:36:33.055Z,6.66
2023-04-30T06:39:00.442Z,6.66
2023-04-30T06:41:27.918Z,6.66
2023-04-30T06:43:55.521Z,6.66
2023-04-30T06:46:23.147Z,8.74
2023-04-30T06:48:50.606Z,8.74
2023-04-30T06:51:18.023Z,9.29
2023-04-30T06:53:46.732Z,9.29
2023-04-30T06:56:14.120Z,9.78
2023-04-30T06:58:41.524Z,9.80
2023-04-30T07:01:08.976Z,10.01
2023-04-30T07:03:36.647Z,10.34
2023-04-30T07:06:04.319Z,10.36
2023-04-30T07:08:31.728Z,10.55
2023-04-30T07:11:00.490Z,10.73
2023-04-30T07:13:27.866Z,10.73
2023-04-30T07:15:55.517Z,10.73
2023-04-30T07:18:22.934Z,10.73
2023-04-30T07:20:50.636Z,10.73
2023-04-30T07:23:17.979Z,10.73
2023-04-30T07:25:45.393Z,11.78
2023-04-30T07:28:14.148Z,11.78
2023-04-30T07:30:41.858Z,11.87
2023-04-30T07:33:12.125Z,12.07
2023-04-30T07:35:39.683Z,12.18
2023-04-30T07:38:07.516Z,12.21
2023-04-30T07:40:36.279Z,12.52
2023-04-30T07:43:04.463Z,12.52
2023-04-30T07:45:33.833Z,12.50
2023-04-30T07:48:01.353Z,12.82
2023-04-30T07:50:33.932Z,12.91
2023-04-30T07:53:02.549Z,12.63
2023-04-30T07:55:30.306Z,12.92
2023-04-30T07:57:57.742Z,12.88
2023-04-30T08:00:26.348Z,13.19
2023-04-30T08:02:55.109Z,13.20
2023-04-30T08:05:22.799Z,12.53
2023-04-30T08:07:50.186Z,12.93
2023-04-30T08:10:17.598Z,12.96
2023-04-30T08:12:45.150Z,13.36
2023-04-30T08:15:12.520Z,13.41
2023-04-30T08:17:39.918Z,13.45
2023-04-30T08:20:09.900Z,13.78
2023-04-30T08:22:37.324Z,13.75
2023-04-30T08:25:05.105Z,13.76
2023-04-30T08:27:33.127Z,13.91
2023-04-30T08:30:00.542Z,14.02
2023-04-30T08:32:29.034Z,13.48
2023-04-30T08:34:56.605Z,13.97
2023-04-30T08:37:25.506Z,14.37
2023-04-30T08:39:53.176Z,14.45
2023-04-30T08:42:25.916Z,14.38
2023-04-30T08:44:53.277Z,13.71
2023-04-30T08:47:21.960Z,14.33
2023-04-30T08:49:49.983Z,14.60
2023-04-30T08:52:17.917Z,14.85
2023-04-30T08:54:47.110Z,14.99
2023-04-30T08:57:14.780Z,15.23
2023-04-30T08:59:42.249Z,15.54
2023-04-30T09:02:10.539Z,15.99
2023-04-30T09:04:38.025Z,16.27
2023-04-30T09:07:08.885Z,16.76
2023-04-30T09:09:39.888Z,17.04
2023-04-30T09:12:18.787Z,17.42
2023-04-30T09:15:00.682Z,17.05
2023-04-30T09:17:28.231Z,17.71
2023-04-30T09:19:56.890Z,17.60
2023-04-30T09:22:25.482Z,18.36
2023-04-30T09:24:54.930Z,18.20
2023-04-30T09:27:24.250Z,18.72
2023-04-30T09:29:51.656Z,19.21
2023-04-30T09:32:19.206Z,19.62
2023-04-30T09:34:46.575Z,19.22
2023-04-30T09:37:14.310Z,19.06
2023-04-30T09:39:49.532Z,17.50
2023-04-30T09:42:17.358Z,17.02
2023-04-30T09:44:46.045Z,18.42
2023-04-30T09:47:14.631Z,18.91
2023-04-30T09:49:44.212Z,19.86
2023-04-30T09:52:12.788Z,19.61
2023-04-30T09:54:41.115Z,18.77
2023-04-30T09:57:12.281Z,20.05
2023-04-30T09:59:44.189Z,20.65
2023-04-30T10:02:18.198Z,21.28
2023-04-30T10:04:49.970Z,20.78
2023-04-30T10:07:22.174Z,20.69
2023-04-30T10:09:52.209Z,19.61
2023-04-30T10:12:24.397Z,19.73
2023-04-30T10:14:56.274Z,21.21
2023-04-30T10:17:28.293Z,19.78
2023-04-30T10:20:00.294Z,20.27
2023-04-30T10:22:27.823Z,19.98
2023-04-30T10:24:55.387Z,19.07
2023-04-30T10:27:22.813Z,19.60
2023-04-30T10:29:51.496Z,19.88
2023-04-30T10:32:20.512Z,21.17
2023-04-30T10:34:56.259Z,22.34
2023-04-30T10:37:32.181Z,22.76
2023-04-30T10:39:59.563Z,23.54
2023-04-30T10:42:28.805Z,23.61
2023-04-30T10:44:56.733Z,24.32
2023-04-30T10:47:31.352Z,23.03
2023-04-30T10:50:05.362Z,22.15
2023-04-30T10:52:32.744Z,20.20
2023-04-30T10:55:01.527Z,20.07
2023-04-30T10:57:31.073Z,21.60
2023-04-30T11:00:19.855Z,23.15
2023-04-30T11:02:49.018Z,22.99
2023-04-30T11:05:19.692Z,20.66
2023-04-30T11:07:49.713Z,19.49
2023-04-30T11:10:17.990Z,19.52
2023-04-30T11:12:53.032Z,19.92
2023-04-30T11:15:22.642Z,20.27
2023-04-30T11:17:50.698Z,20.56
2023-04-30T11:20:24.264Z,20.18
2023-04-30T11:23:10.274Z,20.11
2023-04-30T11:25:42.364Z,19.19
2023-04-30T11:28:14.061Z,19.53
2023-04-30T11:30:42.596Z,20.21
2023-04-30T11:33:11.694Z,20.57
2023-04-30T11:35:40.685Z,22.07
2023-04-30T11:38:09.487Z,22.87
2023-04-30T11:40:37.440Z,24.09
2023-04-30T11:43:04.827Z,22.61
2023-04-30T11:45:32.300Z,21.92
2023-04-30T11:48:00.254Z,21.51
2023-04-30T11:50:33.655Z,21.79
2023-04-30T11:53:03.843Z,21.44
2023-04-30T11:55:31.271Z,23.18
2023-04-30T11:58:00.332Z,24.91
2023-04-30T12:00:29.617Z,25.12
2023-04-30T12:02:58.552Z,22.67
2023-04-30T12:05:28.950Z,21.61
2023-04-30T12:07:57.832Z,24.23
2023-04-30T12:10:26.997Z,25.39
2023-04-30T12:12:55.258Z,24.96
2023-04-30T12:15:26.351Z,24.82
2023-04-30T12:17:55.120Z,25.61
2023-04-30T12:20:24.055Z,25.26
2023-04-30T12:22:52.274Z,27.29
2023-04-30T12:25:21.609Z,27.75
2023-04-30T12:27:51.305Z,25.44
2023-04-30T12:30:21.471Z,26.81
2023-04-30T12:32:51.070Z,26.57
2023-04-30T12:35:20.826Z,27.98
2023-04-30T12:37:50.267Z,29.78
2023-04-30T12:40:19.904Z,31.01
2023-04-30T12:42:47.852Z,27.17
2023-04-30T12:45:47.050Z,25.24
2023-04-30T12:48:15.942Z,23.47
2023-04-30T12:50:44.009Z,24.30
2023-04-30T12:53:11.546Z,25.05
2023-04-30T12:55:39.284Z,27.08
2023-04-30T12:58:08.529Z,29.19
2023-04-30T13:00:50.429Z,30.33
2023-04-30T13:03:19.834Z,31.45
2023-04-30T13:05:49.896Z,31.47
2023-04-30T13:08:18.113Z,30.19
2023-04-30T13:10:48.377Z,29.01
2023-04-30T13:13:17.313Z,29.88
2023-04-30T13:15:44.893Z,29.33
2023-04-30T13:18:15.747Z,25.67
2023-04-30T13:20:43.890Z,24.71
2023-04-30T13:23:12.089Z,25.97
2023-04-30T13:25:40.241Z,27.22
2023-04-30T13:28:07.625Z,28.02
2023-04-30T13:30:35.726Z,27.33
2023-04-30T13:33:03.180Z,26.55
2023-04-30T13:35:31.909Z,26.04
2023-04-30T13:38:00.329Z,28.15
2023-04-30T13:40:27.871Z,30.30
2023-04-30T13:42:55.247Z,32.18
2023-04-30T13:45:22.681Z,32.15
2023-04-30T13:47:50.132Z,32.54
2023-04-30T13:50:17.524Z,34.45
2023-04-30T13:52:46.269Z,34.48
2023-04-30T13:55:13.756Z,34.13
2023-04-30T13:57:41.159Z,32.88
2023-04-30T14:00:09.953Z,33.78
2023-04-30T14:02:37.463Z,34.32
2023-04-30T14:05:06.677Z,34.84
2023-04-30T14:07:35.201Z,35.22
2023-04-30T14:10:04.270Z,35.53
2023-04-30T14:12:31.950Z,34.22
2023-04-30T14:14:59.574Z,34.75
2023-04-30T14:17:28.144Z,35.22
2023-04-30T14:19:55.778Z,34.61
2023-04-30T14:22:26.049Z,34.44
2023-04-30T14:24:53.941Z,34.00
2023-04-30T14:27:23.296Z,34.02
2023-04-30T14:29:51.378Z,33.57
2023-04-30T14:32:18.884Z,33.58
2023-04-30T14:34:46.429Z,33.45
2023-04-30T14:37:13.824Z,33.22
2023-04-30T14:39:41.224Z,32.44
2023-04-30T14:42:08.813Z,33.22
2023-04-30T14:44:38.442Z,33.14
2023-04-30T14:47:05.864Z,32.80
2023-04-30T14:49:33.241Z,31.75
2023-04-30T14:52:00.652Z,32.45
2023-04-30T14:54:28.036Z,33.25
2023-04-30T14:56:55.431Z,33.43
2023-04-30T14:59:22.860Z,32.94
2023-04-30T15:01:51.626Z,34.68
2023-04-30T15:04:19.075Z,34.86
2023-04-30T15:06:46.555Z,35.98
2023-04-30T15:09:14.154Z,35.88
2023-04-30T15:11:41.536Z,34.18
2023-04-30T15:14:08.900Z,34.89
2023-04-30T15:16:36.549Z,33.86
2023-04-30T15:19:05.265Z,34.72
2023-04-30T15:21:32.637Z,34.52
2023-04-30T15:23:59.990Z,34.36
2023-04-30T15:26:29.303Z,33.89
2023-04-30T15:28:57.267Z,33.54
2023-04-30T15:31:25.002Z,33.98
2023-04-30T15:33:52.360Z,33.79
2023-04-30T15:36:23.225Z,33.60
2023-04-30T15:38:50.571Z,33.53
2023-04-30T15:41:17.969Z,33.13
2023-04-30T15:43:45.326Z,34.06
2023-04-30T15:46:12.724Z,33.25
2023-04-30T15:48:40.111Z,33.56
2023-04-30T15:51:07.546Z,34.36
2023-04-30T15:53:36.331Z,35.21
2023-04-30T15:56:04.442Z,35.31
2023-04-30T15:58:31.903Z,34.06
2023-04-30T16:00:59.247Z,32.94
2023-04-30T16:03:26.868Z,31.50
2023-04-30T16:05:55.309Z,31.53
2023-04-30T16:08:22.729Z,32.13
2023-04-30T16:10:51.523Z,32.68
2023-04-30T16:13:19.199Z,33.08
2023-04-30T16:15:47.354Z,34.16
2023-04-30T16:18:14.811Z,33.49
2023-04-30T16:20:42.771Z,33.55
2023-04-30T16:23:10.130Z,32.37
2023-04-30T16:25:37.544Z,32.02
2023-04-30T16:28:06.338Z,33.11
2023-04-30T16:30:34.301Z,32.53
2023-04-30T16:33:01.742Z,32.87
2023-04-30T16:35:29.518Z,33.56
2023-04-30T16:37:56.990Z,33.66
2023-04-30T16:40:24.670Z,32.73
2023-04-30T16:42:52.098Z,31.88
2023-04-30T16:45:20.969Z,32.27
2023-04-30T16:47:49.412Z,31.38
2023-04-30T16:50:17.013Z,31.99
2023-04-30T16:52:44.466Z,31.41
2023-04-30T16:55:11.879Z,32.09
2023-04-30T16:57:39.243Z,31.04
2023-04-30T17:00:08.517Z,30.93
2023-04-30T17:02:38.040Z,30.60
2023-04-30T17:05:06.142Z,31.13
2023-04-30T17:07:33.541Z,30.87
2023-04-30T17:10:00.959Z,29.51
2023-04-30T17:12:28.341Z,29.01
2023-04-30T17:14:55.783Z,28.65
2023-04-30T17:17:23.398Z,27.59
2023-04-30T17:19:52.113Z,27.73
2023-04-30T17:22:19.600Z,26.80
2023-04-30T17:24:47.582Z,27.51
2023-04-30T17:27:14.960Z,27.47
2023-04-30T17:29:42.543Z,27.62
2023-04-30T17:32:11.170Z,27.47
2023-04-30T17:34:38.870Z,27.24
2023-04-30T17:37:08.605Z,26.74
2023-04-30T17:39:36.148Z,25.59
2023-04-30T17:42:04.621Z,23.66
2023-04-30T17:44:33.560Z,21.72
2023-04-30T17:47:03.220Z,20.83
2023-04-30T17:49:30.549Z,19.92
2023-04-30T17:51:58.923Z,19.77
2023-04-30T17:54:27.704Z,19.05
2023-04-30T17:56:55.309Z,18.34
2023-04-30T17:59:22.662Z,17.89
2023-04-30T18:01:50.104Z,17.31
2023-04-30T18:04:19.255Z,16.62
2023-04-30T18:06:46.929Z,16.41
2023-04-30T18:09:14.728Z,16.27
2023-04-30T18:11:43.478Z,15.77
2023-04-30T18:14:10.898Z,15.04
2023-04-30T18:16:38.304Z,14.26
2023-04-30T18:19:05.784Z,13.52
2023-04-30T18:21:33.769Z,12.42
2023-04-30T18:24:01.161Z,11.72
2023-04-30T18:26:28.610Z,11.30
2023-04-30T18:28:57.679Z,10.92
2023-04-30T18:31:25.266Z,10.64
2023-04-30T18:33:52.681Z,10.46
2023-04-30T18:36:20.118Z,10.34
2023-04-30T18:38:47.511Z,10.12
2023-04-30T18:41:15.005Z,9.94
2023-04-30T18:43:43.161Z,9.73
2023-04-30T18:46:11.906Z,9.45
2023-04-30T18:48:39.356Z,9.27
2023-04-30T18:51:06.710Z,9.12
2023-04-30T18:53:34.143Z,8.99
2023-04-30T18:56:01.603Z,8.96
2023-04-30T18:58:29.013Z,8.78
2023-04-30T19:00:57.631Z,8.70
2023-04-30T19:03:27.035Z,8.66
2023-04-30T19:05:56.685Z,8.55
2023-04-30T19:08:24.078Z,8.32
2023-04-30T19:10:53.141Z,8.19
2023-04-30T19:13:20.613Z,8.16
2023-04-30T19:15:49.004Z,8.18
2023-04-30T19:18:17.671Z,8.11
2023-04-30T19:20:57.128Z,8.03
2023-04-30T19:23:24.680Z,8.00
2023-04-30T19:25:52.133Z,7.97
2023-04-30T19:28:19.635Z,7.84
2023-04-30T19:30:47.057Z,7.79
2023-04-30T19:33:14.535Z,7.68
2023-04-30T19:35:41.923Z,7.56
2023-04-30T19:38:10.605Z,7.59
2023-04-30T19:40:37.969Z,7.58
2023-04-30T19:43:05.356Z,7.53
2023-04-30T19:45:33.011Z,7.50
2023-04-30T19:48:00.385Z,7.56
2023-04-30T19:50:27.827Z,7.53
2023-04-30T19:52:55.704Z,7.41
2023-04-30T19:55:24.398Z,7.42
2023-04-30T19:57:51.761Z,7.39
2023-04-30T20:00:19.113Z,7.25
2023-04-30T20:02:47.526Z,7.22
2023-04-30T20:05:15.117Z,7.13
2023-04-30T20:07:42.983Z,7.07
2023-04-30T20:10:13.396Z,6.86
2023-04-30T20:12:42.116Z,6.82
2023-04-30T20:15:10.251Z,6.88
2023-04-30T20:17:37.741Z,6.65
2023-04-30T20:20:06.362Z,6.50
2023-04-30T20:22:33.708Z,6.40
2023-04-30T20:25:02.493Z,6.59
2023-04-30T20:27:30.003Z,6.54
2023-04-30T20:29:59.006Z,6.50
2023-04-30T20:32:26.426Z,6.37
2023-04-30T20:34:54.194Z,6.16
2023-04-30T20:37:21.893Z,5.95
2023-04-30T20:39:49.245Z,5.86
2023-04-30T20:42:16.814Z,5.56
2023-04-30T20:44:44.280Z,5.45
2023-04-30T20:47:14.252Z,5.39
2023-04-30T20:49:43.441Z,5.39
2023-04-30T20:52:12.031Z,5.35
2023-04-30T20:54:39.644Z,5.40
2023-04-30T20:57:07.619Z,5.41
2023-04-30T20:59:36.011Z,5.51
2023-04-30T21:02:04.269Z,5.57
2023-04-30T21:04:33.051Z,5.60
2023-04-30T21:07:00.420Z,5.59
2023-04-30T21:09:27.802Z,5.45
2023-04-30T21:11:55.491Z,5.40
2023-04-30T21:14:22.863Z,5.29
2023-04-30T21:16:51.237Z,5.21
2023-04-30T21:19:18.732Z,5.16
2023-04-30T21:21:49.610Z,5.22
2023-04-30T21:24:17.188Z,5.13
2023-04-30T21:26:44.614Z,5.08
2023-04-30T21:29:11.976Z,4.87
2023-04-30T21:31:39.351Z,4.85
2023-04-30T21:34:06.752Z,4.88
2023-04-30T21:36:35.442Z,4.83
2023-04-30T21:39:04.984Z,4.82
2023-04-30T21:41:32.364Z,4.65
2023-04-30T21:43:59.751Z,4.61
2023-04-30T21:46:27.220Z,4.55
2023-04-30T21:48:54.700Z,4.58
2023-04-30T21:51:22.231Z,4.53
2023-04-30T21:53:49.700Z,4.49
2023-04-30T21:56:20.257Z,4.46
2023-04-30T21:58:48.947Z,4.42
2023-04-30T22:01:16.320Z,4.45
2023-04-30T22:03:44.394Z,4.39
2023-04-30T22:06:11.872Z,4.47
2023-04-30T22:08:39.237Z,4.36
2023-04-30T22:11:06.662Z,4.33
2023-04-30T22:13:35.960Z,4.40
2023-04-30T22:16:03.467Z,4.38
2023-04-30T22:18:31.247Z,4.37
2023-04-30T22:21:00.386Z,4.47
2023-04-30T22:23:28.614Z,4.45
2023-04-30T22:25:56.346Z,4.44
2023-04-30T22:28:23.813Z,4.22
2023-04-30T22:30:58.695Z,4.05
2023-04-30T22:33:26.157Z,3.86
2023-04-30T22:35:53.583Z,3.78
2023-04-30T22:38:21.049Z,3.72
2023-04-30T22:40:48.428Z,3.65
2023-04-30T22:43:16.208Z,3.68
2023-04-30T22:45:43.801Z,3.72
2023-04-30T22:48:14.052Z,3.81
2023-04-30T22:50:41.671Z,3.99
2023-04-30T22:53:09.504Z,3.97
2023-04-30T22:55:37.054Z,4.00
2023-04-30T22:58:04.437Z,3.98
2023-04-30T23:00:31.808Z,3.93
2023-04-30T23:02:59.234Z,3.97
2023-04-30T23:05:28.078Z,3.78
2023-04-30T23:07:55.449Z,3.71
2023-04-30T23:10:22.855Z,3.59
2023-04-30T23:12:50.254Z,3.62
2023-04-30T23:15:18.241Z,3.52
2023-04-30T23:17:45.701Z,3.47
2023-04-30T23:20:13.138Z,3.39
2023-04-30T23:22:41.825Z,3.46
2023-04-30T23:25:09.676Z,3.50
2023-04-30T23:27:37.046Z,3.43
2023-04-30T23:30:05.390Z,3.33
2023-04-30T23:32:33.227Z,3.23
2023-04-30T23:35:00.806Z,3.03
2023-04-30T23:37:28.229Z,2.78
2023-04-30T23:39:57.422Z,2.95
2023-04-30T23:42:25.656Z,2.90
2023-04-30T23:44:53.070Z,2.90
2023-04-30T23:47:20.825Z,2.88
2023-04-30T23:49:48.239Z,2.87
2023-04-30T23:52:16.195Z,2.90
2023-04-30T23:54:43.557Z,3.08
2023-04-30T23:57:12.354Z,3.11
2023-04-30T23:59:39.737Z,3.14
